createdAt,value
2019-01-09T00:00:12.516Z,0.00
2019-01-09T00:01:12.509Z,0.00
2019-01-09T00:02:12.430Z,0.00
2019-01-09T00:03:12.387Z,0.00
2019-01-09T00:04:12.326Z,0.00
2019-01-09T00:05:12.294Z,0.00
2019-01-09T00:06:12.256Z,0.00
2019-01-09T00:07:12.221Z,0.00
2019-01-09T00:08:12.350Z,0.00
2019-01-09T00:09:12.105Z,0.00
2019-01-09T00:10:12.079Z,0.00
2019-01-09T00:11:12.044Z,0.00
2019-01-09T00:12:11.969Z,0.00
2019-01-09T00:13:11.949Z,0.00
2019-01-09T00:14:11.883Z,0.00
2019-01-09T00:15:11.837Z,0.00
2019-01-09T00:16:11.784Z,0.00
2019-01-09T00:17:11.783Z,0.00
2019-01-09T00:18:11.701Z,0.00
2019-01-09T00:19:11.692Z,0.00
2019-01-09T00:20:11.612Z,0.00
2019-01-09T00:21:11.584Z,0.00
2019-01-09T00:22:11.522Z,0.00
2019-01-09T00:23:11.492Z,0.00
2019-01-09T00:24:11.420Z,0.00
2019-01-09T00:25:11.381Z,0.00
2019-01-09T00:26:11.354Z,0.00
2019-01-09T00:27:11.316Z,0.00
2019-01-09T00:28:11.258Z,0.00
2019-01-09T00:29:11.200Z,0.00
2019-01-09T00:30:11.172Z,0.00
2019-01-09T00:31:11.131Z,0.00
2019-01-09T00:32:11.089Z,0.00
2019-01-09T00:33:11.039Z,0.00
2019-01-09T00:34:10.977Z,0.00
2019-01-09T00:35:10.924Z,0.00
2019-01-09T00:36:10.883Z,0.00
2019-01-09T00:37:10.857Z,0.00
2019-01-09T00:38:10.901Z,0.00
2019-01-09T00:39:10.746Z,0.00
2019-01-09T00:40:10.711Z,0.00
2019-01-09T00:41:10.651Z,0.00
2019-01-09T00:42:10.630Z,0.00
2019-01-09T00:43:10.584Z,0.00
2019-01-09T00:44:10.516Z,0.00
2019-01-09T00:45:10.478Z,0.00
2019-01-09T00:46:10.434Z,0.00
2019-01-09T00:47:10.370Z,0.00
2019-01-09T00:48:10.354Z,0.00
2019-01-09T00:49:10.284Z,0.00
2019-01-09T00:50:10.253Z,0.00
2019-01-09T00:51:10.206Z,0.00
2019-01-09T00:52:10.165Z,0.00
2019-01-09T00:53:10.127Z,0.00
2019-01-09T00:54:10.070Z,0.00
2019-01-09T00:55:10.019Z,0.00
2019-01-09T00:56:09.990Z,0.00
2019-01-09T00:57:09.922Z,0.00
2019-01-09T00:58:09.920Z,0.00
2019-01-09T00:59:09.844Z,0.00
2019-01-09T01:00:09.823Z,0.00
2019-01-09T01:01:09.753Z,0.00
2019-01-09T01:02:09.711Z,0.00
2019-01-09T01:03:09.669Z,0.00
2019-01-09T01:04:09.630Z,0.00
2019-01-09T01:05:09.576Z,0.00
2019-01-09T01:06:09.533Z,0.00
2019-01-09T01:07:09.473Z,0.00
2019-01-09T01:08:09.467Z,0.00
2019-01-09T01:09:09.392Z,0.00
2019-01-09T01:10:09.334Z,0.00
2019-01-09T01:11:09.317Z,0.00
2019-01-09T01:12:09.249Z,0.00
2019-01-09T01:13:09.230Z,0.00
2019-01-09T01:14:09.163Z,0.00
2019-01-09T01:15:09.133Z,0.00
2019-01-09T01:16:09.069Z,0.00
2019-01-09T01:17:09.028Z,0.00
2019-01-09T01:18:09.000Z,0.00
2019-01-09T01:19:08.959Z,0.00
2019-01-09T01:20:08.875Z,0.00
2019-01-09T01:21:08.834Z,0.00
2019-01-09T01:22:08.802Z,0.00
2019-01-09T01:23:08.756Z,0.00
2019-01-09T01:24:08.728Z,0.00
2019-01-09T01:25:08.679Z,0.00
2019-01-09T01:26:08.612Z,0.00
2019-01-09T01:27:08.559Z,0.00
2019-01-09T01:28:08.524Z,0.00
2019-01-09T01:29:08.503Z,0.00
2019-01-09T01:30:08.424Z,0.00
2019-01-09T01:31:08.407Z,0.00
2019-01-09T01:32:08.344Z,0.00
2019-01-09T01:33:08.302Z,0.00
2019-01-09T01:34:08.251Z,0.00
2019-01-09T01:35:08.257Z,0.00
2019-01-09T01:36:08.174Z,0.00
2019-01-09T01:37:08.137Z,0.00
2019-01-09T01:38:08.082Z,0.00
2019-01-09T01:39:17.398Z,0.00
2019-01-09T01:40:16.976Z,0.00
2019-01-09T01:41:07.941Z,0.00
2019-01-09T01:42:07.881Z,0.00
2019-01-09T01:43:07.820Z,0.00
2019-01-09T01:44:07.786Z,0.00
2019-01-09T01:45:07.773Z,0.00
2019-01-09T01:46:07.707Z,0.00
2019-01-09T01:47:07.652Z,0.00
2019-01-09T01:48:07.618Z,0.00
2019-01-09T01:49:07.561Z,0.00
2019-01-09T01:50:07.546Z,0.00
2019-01-09T01:51:07.490Z,0.00
2019-01-09T01:52:07.445Z,0.00
2019-01-09T01:53:07.378Z,0.00
2019-01-09T01:54:07.340Z,0.00
2019-01-09T01:55:07.321Z,0.00
2019-01-09T01:56:07.314Z,0.00
2019-01-09T01:57:07.202Z,0.00
2019-01-09T01:58:07.154Z,0.00
2019-01-09T01:59:07.117Z,0.00
2019-01-09T02:00:07.067Z,0.00
2019-01-09T02:01:07.010Z,0.00
2019-01-09T02:02:06.999Z,0.00
2019-01-09T02:03:06.962Z,0.00
2019-01-09T02:04:06.892Z,0.00
2019-01-09T02:05:06.877Z,0.00
2019-01-09T02:06:06.806Z,0.00
2019-01-09T02:07:06.762Z,0.00
2019-01-09T02:08:06.732Z,0.00
2019-01-09T02:09:06.671Z,0.00
2019-01-09T02:10:06.635Z,0.00
2019-01-09T02:11:06.587Z,0.00
2019-01-09T02:12:06.528Z,0.00
2019-01-09T02:13:06.487Z,0.00
2019-01-09T02:14:06.459Z,0.00
2019-01-09T02:15:06.400Z,0.00
2019-01-09T02:16:06.361Z,0.00
2019-01-09T02:17:06.321Z,0.00
2019-01-09T02:18:06.266Z,0.00
2019-01-09T02:19:06.212Z,0.00
2019-01-09T02:20:06.182Z,0.00
2019-01-09T02:21:06.244Z,0.00
2019-01-09T02:22:06.082Z,0.00
2019-01-09T02:23:06.028Z,0.00
2019-01-09T02:24:05.991Z,0.00
2019-01-09T02:25:05.944Z,0.00
2019-01-09T02:26:05.919Z,0.00
2019-01-09T02:27:05.846Z,0.00
2019-01-09T02:28:05.791Z,0.00
2019-01-09T02:29:05.751Z,0.00
2019-01-09T02:30:05.713Z,0.00
2019-01-09T02:31:05.676Z,0.00
2019-01-09T02:32:05.659Z,0.00
2019-01-09T02:33:05.567Z,0.00
2019-01-09T02:34:05.539Z,0.00
2019-01-09T02:35:05.490Z,0.00
2019-01-09T02:36:13.309Z,0.00
2019-01-09T02:37:05.393Z,0.00
2019-01-09T02:38:05.354Z,0.00
2019-01-09T02:39:05.323Z,0.00
2019-01-09T02:40:05.251Z,0.00
2019-01-09T02:41:05.208Z,0.00
2019-01-09T02:42:05.204Z,0.00
2019-01-09T02:43:05.164Z,0.00
2019-01-09T02:44:05.082Z,0.00
2019-01-09T02:45:05.047Z,0.00
2019-01-09T02:46:04.984Z,0.00
2019-01-09T02:47:04.951Z,0.00
2019-01-09T02:48:04.906Z,0.00
2019-01-09T02:49:04.862Z,0.00
2019-01-09T02:50:04.844Z,0.00
2019-01-09T02:51:04.763Z,0.00
2019-01-09T02:52:04.758Z,0.00
2019-01-09T02:53:04.701Z,0.00
2019-01-09T02:54:04.643Z,0.00
2019-01-09T02:55:04.586Z,0.00
2019-01-09T02:56:04.556Z,0.00
2019-01-09T02:57:04.504Z,0.00
2019-01-09T02:58:04.486Z,0.00
2019-01-09T02:59:04.401Z,0.00
2019-01-09T03:00:04.351Z,0.00
2019-01-09T03:01:04.305Z,0.00
2019-01-09T03:02:04.257Z,0.00
2019-01-09T03:03:04.253Z,0.00
2019-01-09T03:04:04.172Z,0.00
2019-01-09T03:05:04.117Z,0.00
2019-01-09T03:06:04.089Z,0.00
2019-01-09T03:07:04.041Z,0.00
2019-01-09T03:08:03.995Z,0.00
2019-01-09T03:09:04.019Z,0.00
2019-01-09T03:10:03.910Z,0.00
2019-01-09T03:11:03.863Z,0.00
2019-01-09T03:12:03.795Z,0.00
2019-01-09T03:13:03.758Z,0.00
2019-01-09T03:14:03.743Z,0.00
2019-01-09T03:15:03.689Z,0.00
2019-01-09T03:16:03.624Z,0.00
2019-01-09T03:17:03.607Z,0.00
2019-01-09T03:18:03.555Z,0.00
2019-01-09T03:19:03.521Z,0.00
2019-01-09T03:20:03.572Z,0.00
2019-01-09T03:21:03.407Z,0.00
2019-01-09T03:22:03.351Z,0.00
2019-01-09T03:23:03.310Z,0.00
2019-01-09T03:24:03.261Z,0.00
2019-01-09T03:25:03.233Z,0.00
2019-01-09T03:26:03.183Z,0.00
2019-01-09T03:27:03.128Z,0.00
2019-01-09T03:28:03.115Z,0.00
2019-01-09T03:29:03.029Z,0.00
2019-01-09T03:30:03.102Z,0.00
2019-01-09T03:31:02.958Z,0.00
2019-01-09T03:32:02.975Z,0.00
2019-01-09T03:33:03.016Z,0.00
2019-01-09T03:34:02.850Z,0.00
2019-01-09T03:35:02.791Z,0.00
2019-01-09T03:36:02.713Z,0.00
2019-01-09T03:37:02.660Z,0.00
2019-01-09T03:38:02.640Z,0.00
2019-01-09T03:39:02.588Z,0.00
2019-01-09T03:40:02.529Z,0.00
2019-01-09T03:41:02.498Z,0.00
2019-01-09T03:42:02.455Z,0.00
2019-01-09T03:43:02.432Z,0.00
2019-01-09T03:44:02.353Z,0.00
2019-01-09T03:45:02.298Z,0.00
2019-01-09T03:46:02.272Z,0.00
2019-01-09T03:47:02.220Z,0.00
2019-01-09T03:48:02.198Z,0.00
2019-01-09T03:49:02.132Z,0.00
2019-01-09T03:50:02.069Z,0.00
2019-01-09T03:51:02.038Z,0.00
2019-01-09T03:52:12.484Z,0.00
2019-01-09T03:53:01.927Z,0.00
2019-01-09T03:54:01.904Z,0.00
2019-01-09T03:55:01.836Z,0.00
2019-01-09T03:56:01.787Z,0.00
2019-01-09T03:57:01.752Z,0.00
2019-01-09T03:58:01.729Z,0.00
2019-01-09T03:59:01.679Z,0.00
2019-01-09T04:00:01.613Z,0.00
2019-01-09T04:01:01.564Z,0.00
2019-01-09T04:02:01.519Z,0.00
2019-01-09T04:03:01.467Z,0.00
2019-01-09T04:04:01.449Z,0.00
2019-01-09T04:05:01.424Z,0.00
2019-01-09T04:06:01.343Z,0.00
2019-01-09T04:07:01.283Z,0.00
2019-01-09T04:08:01.238Z,0.00
2019-01-09T04:09:01.197Z,0.00
2019-01-09T04:10:01.185Z,0.00
2019-01-09T04:11:01.100Z,0.00
2019-01-09T04:12:01.066Z,0.00
2019-01-09T04:13:01.012Z,0.00
2019-01-09T04:14:00.981Z,0.00
2019-01-09T04:15:00.932Z,0.00
2019-01-09T04:16:00.900Z,0.00
2019-01-09T04:17:00.855Z,0.00
2019-01-09T04:18:00.793Z,0.00
2019-01-09T04:19:00.817Z,0.00
2019-01-09T04:20:00.736Z,0.00
2019-01-09T04:21:00.664Z,0.00
2019-01-09T04:22:00.625Z,0.00
2019-01-09T04:23:00.574Z,0.00
2019-01-09T04:24:00.534Z,0.00
2019-01-09T04:25:00.459Z,0.00
2019-01-09T04:26:00.495Z,0.00
2019-01-09T04:27:00.374Z,0.00
2019-01-09T04:28:00.348Z,0.00
2019-01-09T04:29:00.297Z,0.00
2019-01-09T04:30:00.286Z,0.00
2019-01-09T04:31:00.224Z,0.00
2019-01-09T04:32:00.156Z,0.00
2019-01-09T04:33:00.105Z,0.00
2019-01-09T04:34:00.063Z,0.00
2019-01-09T04:35:00.017Z,0.00
2019-01-09T04:35:59.989Z,0.00
2019-01-09T04:36:59.938Z,0.00
2019-01-09T04:37:59.889Z,0.00
2019-01-09T04:38:59.825Z,0.00
2019-01-09T04:39:59.781Z,0.00
2019-01-09T04:40:59.773Z,0.00
2019-01-09T04:41:59.713Z,0.00
2019-01-09T04:42:59.646Z,0.00
2019-01-09T04:43:59.598Z,0.00
2019-01-09T04:44:59.553Z,0.00
2019-01-09T04:45:59.506Z,0.00
2019-01-09T04:46:59.481Z,0.00
2019-01-09T04:47:59.434Z,0.00
2019-01-09T04:48:59.391Z,0.00
2019-01-09T04:49:59.337Z,0.00
2019-01-09T04:50:59.292Z,0.00
2019-01-09T04:51:59.264Z,0.00
2019-01-09T04:52:59.199Z,0.00
2019-01-09T04:53:59.449Z,0.00
2019-01-09T04:54:59.095Z,0.00
2019-01-09T04:55:59.092Z,0.00
2019-01-09T04:56:59.034Z,0.00
2019-01-09T04:57:58.962Z,0.00
2019-01-09T04:58:58.920Z,0.00
2019-01-09T04:59:58.872Z,0.00
2019-01-09T05:00:58.838Z,0.00
2019-01-09T05:01:58.791Z,0.00
2019-01-09T05:02:58.762Z,0.00
2019-01-09T05:03:58.704Z,0.00
2019-01-09T05:04:58.676Z,0.00
2019-01-09T05:05:58.611Z,0.00
2019-01-09T05:07:00.585Z,0.00
2019-01-09T05:07:58.509Z,0.00
2019-01-09T05:08:58.497Z,0.00
2019-01-09T05:09:58.429Z,0.00
2019-01-09T05:10:58.386Z,0.00
2019-01-09T05:11:58.326Z,0.00
2019-01-09T05:12:58.321Z,0.00
2019-01-09T05:13:58.267Z,0.00
2019-01-09T05:14:58.187Z,0.00
2019-01-09T05:15:58.173Z,0.00
2019-01-09T05:16:58.110Z,0.00
2019-01-09T05:17:58.404Z,0.00
2019-01-09T05:18:57.995Z,0.00
2019-01-09T05:19:57.975Z,0.00
2019-01-09T05:20:57.918Z,0.00
2019-01-09T05:21:57.891Z,0.00
2019-01-09T05:22:57.838Z,0.00
2019-01-09T05:23:57.772Z,0.00
2019-01-09T05:24:57.805Z,0.00
2019-01-09T05:25:57.719Z,0.00
2019-01-09T05:26:57.647Z,0.00
2019-01-09T05:27:57.593Z,0.00
2019-01-09T05:28:57.548Z,0.00
2019-01-09T05:29:57.519Z,0.00
2019-01-09T05:30:57.493Z,0.00
2019-01-09T05:31:57.406Z,0.00
2019-01-09T05:32:57.368Z,0.00
2019-01-09T05:33:57.324Z,0.00
2019-01-09T05:34:57.281Z,0.00
2019-01-09T05:35:57.267Z,0.00
2019-01-09T05:36:57.871Z,0.00
2019-01-09T05:37:57.145Z,0.00
2019-01-09T05:38:57.105Z,0.00
2019-01-09T05:39:57.044Z,0.00
2019-01-09T05:40:57.040Z,0.00
2019-01-09T05:41:56.968Z,0.00
2019-01-09T05:42:56.920Z,0.00
2019-01-09T05:43:56.878Z,0.00
2019-01-09T05:44:57.796Z,0.00
2019-01-09T05:45:56.795Z,0.00
2019-01-09T05:46:56.758Z,0.00
2019-01-09T05:47:56.679Z,0.00
2019-01-09T05:48:56.631Z,0.00
2019-01-09T05:49:56.589Z,0.00
2019-01-09T05:50:56.541Z,0.00
2019-01-09T05:51:56.502Z,0.00
2019-01-09T05:52:56.486Z,0.00
2019-01-09T05:53:56.412Z,0.00
2019-01-09T05:54:56.367Z,0.00
2019-01-09T05:55:56.328Z,0.00
2019-01-09T05:56:56.264Z,0.00
2019-01-09T05:57:56.235Z,0.00
2019-01-09T05:58:56.203Z,0.00
2019-01-09T05:59:56.158Z,0.00
2019-01-09T06:00:56.106Z,0.00
2019-01-09T06:01:56.034Z,0.00
2019-01-09T06:03:05.529Z,0.00
2019-01-09T06:04:05.036Z,0.00
2019-01-09T06:04:55.896Z,0.00
2019-01-09T06:05:55.854Z,0.00
2019-01-09T06:06:55.831Z,0.00
2019-01-09T06:07:55.749Z,0.00
2019-01-09T06:08:55.722Z,0.00
2019-01-09T06:09:55.715Z,0.00
2019-01-09T06:10:55.618Z,0.00
2019-01-09T06:11:55.575Z,0.00
2019-01-09T06:12:55.560Z,0.00
2019-01-09T06:13:55.511Z,0.00
2019-01-09T06:14:55.484Z,0.00
2019-01-09T06:15:55.392Z,0.00
2019-01-09T06:16:55.356Z,0.00
2019-01-09T06:17:55.379Z,0.00
2019-01-09T06:18:55.261Z,0.00
2019-01-09T06:19:55.255Z,0.00
2019-01-09T06:20:55.195Z,0.00
2019-01-09T06:21:55.120Z,0.00
2019-01-09T06:22:55.078Z,0.00
2019-01-09T06:23:55.037Z,0.00
2019-01-09T06:24:54.978Z,0.00
2019-01-09T06:25:54.966Z,0.00
2019-01-09T06:26:54.910Z,0.00
2019-01-09T06:27:54.852Z,0.00
2019-01-09T06:28:54.798Z,0.00
2019-01-09T06:29:54.770Z,0.00
2019-01-09T06:30:54.732Z,0.00
2019-01-09T06:31:54.682Z,0.00
2019-01-09T06:32:54.612Z,0.00
2019-01-09T06:33:54.585Z,0.00
2019-01-09T06:34:54.564Z,0.00
2019-01-09T06:35:54.487Z,0.00
2019-01-09T06:36:54.459Z,0.00
2019-01-09T06:37:54.433Z,0.00
2019-01-09T06:38:54.353Z,0.00
2019-01-09T06:39:54.288Z,0.00
2019-01-09T06:40:54.266Z,0.00
2019-01-09T06:41:54.202Z,0.00
2019-01-09T06:42:54.166Z,0.00
2019-01-09T06:43:54.145Z,0.00
2019-01-09T06:44:54.072Z,0.00
2019-01-09T06:45:54.033Z,0.00
2019-01-09T06:46:54.023Z,0.00
2019-01-09T06:47:53.930Z,0.00
2019-01-09T06:48:53.895Z,0.00
2019-01-09T06:49:53.829Z,0.00
2019-01-09T06:50:53.783Z,0.00
2019-01-09T06:51:53.743Z,0.00
2019-01-09T06:52:53.733Z,0.00
2019-01-09T06:53:53.686Z,0.00
2019-01-09T06:54:53.643Z,0.00
2019-01-09T06:55:53.574Z,0.00
2019-01-09T06:56:53.524Z,4.00
2019-01-09T06:57:53.484Z,4.00
2019-01-09T06:58:53.443Z,4.00
2019-01-09T06:59:53.386Z,4.00
2019-01-09T07:00:53.334Z,4.00
2019-01-09T07:01:53.308Z,4.00
2019-01-09T07:02:53.241Z,4.00
2019-01-09T07:03:53.232Z,8.00
2019-01-09T07:04:53.187Z,4.00
2019-01-09T07:05:53.128Z,8.00
2019-01-09T07:06:53.057Z,8.00
2019-01-09T07:07:53.008Z,8.00
2019-01-09T07:08:53.007Z,12.00
2019-01-09T07:09:52.931Z,12.00
2019-01-09T07:10:52.864Z,16.00
2019-01-09T07:11:52.822Z,16.00
2019-01-09T07:12:52.812Z,20.00
2019-01-09T07:13:52.733Z,24.00
2019-01-09T07:14:52.727Z,28.00
2019-01-09T07:15:52.633Z,32.00
2019-01-09T07:16:52.598Z,40.00
2019-01-09T07:17:52.561Z,40.00
2019-01-09T07:18:52.515Z,48.00
2019-01-09T07:19:52.465Z,52.00
2019-01-09T07:20:52.457Z,60.00
2019-01-09T07:21:52.377Z,72.00
2019-01-09T07:22:52.334Z,76.00
2019-01-09T07:23:52.262Z,84.00
2019-01-09T07:24:52.439Z,100.00
2019-01-09T07:25:52.190Z,104.00
2019-01-09T07:26:52.154Z,112.00
2019-01-09T07:27:52.111Z,124.00
2019-01-09T07:28:52.065Z,132.00
2019-01-09T07:29:52.014Z,144.00
2019-01-09T07:30:51.983Z,160.00
2019-01-09T07:31:51.902Z,176.00
2019-01-09T07:32:51.863Z,188.00
2019-01-09T07:33:51.810Z,208.00
2019-01-09T07:34:51.783Z,224.00
2019-01-09T07:35:51.725Z,244.00
2019-01-09T07:36:51.718Z,260.00
2019-01-09T07:37:51.646Z,280.00
2019-01-09T07:38:51.591Z,308.00
2019-01-09T07:39:51.550Z,332.00
2019-01-09T07:40:51.515Z,364.00
2019-01-09T07:41:51.457Z,384.00
2019-01-09T07:42:51.437Z,400.00
2019-01-09T07:43:51.367Z,396.00
2019-01-09T07:44:51.345Z,368.00
2019-01-09T07:45:51.279Z,360.00
2019-01-09T07:46:51.224Z,376.00
2019-01-09T07:47:51.174Z,460.00
2019-01-09T07:48:51.169Z,628.00
2019-01-09T07:49:51.082Z,724.00
2019-01-09T07:50:51.043Z,812.00
2019-01-09T07:51:50.993Z,980.00
2019-01-09T07:52:50.992Z,1340.00
2019-01-09T07:53:50.894Z,1736.00
2019-01-09T07:54:50.848Z,2184.00
2019-01-09T07:55:50.811Z,2408.00
2019-01-09T07:56:50.851Z,2116.00
2019-01-09T07:57:50.756Z,1504.00
2019-01-09T07:58:50.671Z,1348.00
2019-01-09T07:59:50.658Z,1364.00
2019-01-09T08:00:50.586Z,1372.00
2019-01-09T08:01:50.607Z,1380.00
2019-01-09T08:02:50.521Z,1412.00
2019-01-09T08:03:50.475Z,1484.00
2019-01-09T08:04:50.487Z,1556.00
2019-01-09T08:05:50.351Z,1588.00
2019-01-09T08:06:50.394Z,1576.00
2019-01-09T08:07:54.204Z,1596.00
2019-01-09T08:08:50.234Z,1640.00
2019-01-09T08:09:50.217Z,1672.00
2019-01-09T08:10:50.148Z,1720.00
2019-01-09T08:11:50.101Z,1768.00
2019-01-09T08:12:50.047Z,1816.00
2019-01-09T08:13:50.072Z,1868.00
2019-01-09T08:14:49.947Z,1924.00
2019-01-09T08:15:49.900Z,1976.00
2019-01-09T08:16:49.855Z,2020.00
2019-01-09T08:17:49.850Z,2068.00
2019-01-09T08:18:49.840Z,2140.00
2019-01-09T08:19:49.723Z,2272.00
2019-01-09T08:20:49.680Z,2400.00
2019-01-09T08:21:49.631Z,2432.00
2019-01-09T08:22:49.595Z,2484.00
2019-01-09T08:23:49.532Z,2632.00
2019-01-09T08:24:49.513Z,2892.00
2019-01-09T08:25:49.457Z,3200.00
2019-01-09T08:26:49.417Z,3900.00
2019-01-09T08:27:49.350Z,4508.00
2019-01-09T08:28:49.333Z,4616.00
2019-01-09T08:29:49.296Z,4100.00
2019-01-09T08:30:49.225Z,2940.00
2019-01-09T08:31:49.180Z,2072.00
2019-01-09T08:32:49.134Z,1488.00
2019-01-09T08:33:49.067Z,1048.00
2019-01-09T08:34:49.037Z,760.00
2019-01-09T08:35:49.033Z,756.00
2019-01-09T08:36:48.962Z,836.00
2019-01-09T08:37:48.903Z,736.00
2019-01-09T08:38:48.864Z,996.00
2019-01-09T08:39:48.807Z,1108.00
2019-01-09T08:40:48.802Z,1520.00
2019-01-09T08:41:48.723Z,2284.00
2019-01-09T08:42:48.679Z,2544.00
2019-01-09T08:43:48.626Z,3304.00
2019-01-09T08:44:48.579Z,4080.00
2019-01-09T08:45:48.570Z,3940.00
2019-01-09T08:46:48.493Z,3604.00
2019-01-09T08:47:48.459Z,3948.00
2019-01-09T08:48:48.404Z,3916.00
2019-01-09T08:49:48.375Z,5352.00
2019-01-09T08:50:48.325Z,6760.00
2019-01-09T08:51:48.305Z,7120.00
2019-01-09T08:52:48.238Z,7352.00
2019-01-09T08:53:48.172Z,7536.00
2019-01-09T08:54:48.148Z,7448.00
2019-01-09T08:55:48.137Z,7276.00
2019-01-09T08:56:48.043Z,7408.00
2019-01-09T08:57:47.983Z,7184.00
2019-01-09T08:58:47.938Z,7576.00
2019-01-09T08:59:47.942Z,5820.00
2019-01-09T09:00:47.876Z,7928.00
2019-01-09T09:01:47.863Z,7768.00
2019-01-09T09:02:47.783Z,6656.00
2019-01-09T09:03:47.829Z,7820.00
2019-01-09T09:04:47.689Z,8048.00
2019-01-09T09:05:47.654Z,8200.00
2019-01-09T09:06:47.625Z,6588.00
2019-01-09T09:07:47.565Z,8196.00
2019-01-09T09:08:47.525Z,8200.00
2019-01-09T09:09:47.473Z,8056.00
2019-01-09T09:10:47.423Z,8340.00
2019-01-09T09:11:47.390Z,8468.00
2019-01-09T09:12:47.362Z,8436.00
2019-01-09T09:13:47.301Z,8492.00
2019-01-09T09:14:47.266Z,8568.00
2019-01-09T09:15:47.230Z,8524.00
2019-01-09T09:16:47.161Z,8396.00
2019-01-09T09:17:47.147Z,8512.00
2019-01-09T09:18:47.095Z,8392.00
2019-01-09T09:19:47.040Z,8688.00
2019-01-09T09:20:47.007Z,8852.00
2019-01-09T09:21:46.980Z,8764.00
2019-01-09T09:22:46.929Z,8688.00
2019-01-09T09:23:46.902Z,8660.00
2019-01-09T09:24:46.873Z,8880.00
2019-01-09T09:25:46.796Z,9012.00
2019-01-09T09:26:46.790Z,9184.00
2019-01-09T09:27:46.716Z,9264.00
2019-01-09T09:28:46.704Z,9196.00
2019-01-09T09:29:46.675Z,9064.00
2019-01-09T09:30:46.593Z,9248.00
2019-01-09T09:31:46.558Z,9276.00
2019-01-09T09:32:46.518Z,9392.00
2019-01-09T09:33:46.482Z,9588.00
2019-01-09T09:34:46.451Z,9608.00
2019-01-09T09:35:46.432Z,9436.00
2019-01-09T09:36:46.342Z,9488.00
2019-01-09T09:37:46.317Z,9444.00
2019-01-09T09:38:46.269Z,9528.00
2019-01-09T09:39:46.268Z,9340.00
2019-01-09T09:40:46.191Z,9332.00
2019-01-09T09:41:46.154Z,9548.00
2019-01-09T09:42:46.107Z,9904.00
2019-01-09T09:43:46.074Z,10776.00
2019-01-09T09:44:46.078Z,12340.00
2019-01-09T09:45:46.016Z,12352.00
2019-01-09T09:46:45.964Z,7788.00
2019-01-09T09:47:45.963Z,6092.00
2019-01-09T09:48:45.881Z,5096.00
2019-01-09T09:49:45.860Z,4264.00
2019-01-09T09:50:45.818Z,3860.00
2019-01-09T09:51:45.737Z,3684.00
2019-01-09T09:52:45.708Z,7040.00
2019-01-09T09:53:45.715Z,7380.00
2019-01-09T09:54:45.668Z,7796.00
2019-01-09T09:55:45.587Z,10576.00
2019-01-09T09:56:45.578Z,10832.00
2019-01-09T09:57:45.523Z,10444.00
2019-01-09T09:58:45.458Z,11800.00
2019-01-09T09:59:45.447Z,11096.00
2019-01-09T10:00:45.379Z,12700.00
2019-01-09T10:01:45.401Z,12436.00
2019-01-09T10:02:45.302Z,11744.00
2019-01-09T10:03:45.269Z,12320.00
2019-01-09T10:04:45.240Z,13600.00
2019-01-09T10:05:45.227Z,10656.00
2019-01-09T10:06:45.177Z,10936.00
2019-01-09T10:07:45.119Z,12756.00
2019-01-09T10:08:45.054Z,12784.00
2019-01-09T10:09:45.029Z,11912.00
2019-01-09T10:10:45.077Z,13228.00
2019-01-09T10:11:45.013Z,9436.00
2019-01-09T10:12:44.922Z,5440.00
2019-01-09T10:13:44.872Z,7548.00
2019-01-09T10:14:44.849Z,7220.00
2019-01-09T10:15:44.815Z,8560.00
2019-01-09T10:16:44.751Z,10076.00
2019-01-09T10:17:44.707Z,9112.00
2019-01-09T10:18:44.720Z,13968.00
2019-01-09T10:19:44.633Z,11832.00
2019-01-09T10:20:44.598Z,7656.00
2019-01-09T10:21:44.552Z,5932.00
2019-01-09T10:22:44.500Z,5632.00
2019-01-09T10:23:44.512Z,4496.00
2019-01-09T10:24:44.422Z,4208.00
2019-01-09T10:25:44.397Z,4476.00
2019-01-09T10:26:44.346Z,4916.00
2019-01-09T10:27:44.329Z,4744.00
2019-01-09T10:28:44.266Z,4096.00
2019-01-09T10:29:44.224Z,3252.00
2019-01-09T10:30:44.197Z,3140.00
2019-01-09T10:31:44.153Z,3088.00
2019-01-09T10:32:44.099Z,3056.00
2019-01-09T10:33:44.087Z,3128.00
2019-01-09T10:34:44.003Z,3376.00
2019-01-09T10:35:43.962Z,3768.00
2019-01-09T10:36:43.938Z,4572.00
2019-01-09T10:37:43.924Z,5508.00
2019-01-09T10:38:44.619Z,10084.00
2019-01-09T10:39:43.800Z,9916.00
2019-01-09T10:40:43.755Z,9952.00
2019-01-09T10:41:43.715Z,8696.00
2019-01-09T10:42:43.697Z,4980.00
2019-01-09T10:43:43.649Z,8924.00
2019-01-09T10:44:43.584Z,7124.00
2019-01-09T10:45:43.555Z,4388.00
2019-01-09T10:46:43.491Z,9632.00
2019-01-09T10:47:43.486Z,9988.00
2019-01-09T10:48:43.429Z,10568.00
2019-01-09T10:49:43.386Z,9968.00
2019-01-09T10:50:43.356Z,10248.00
2019-01-09T10:51:43.320Z,10224.00
2019-01-09T10:52:43.269Z,5784.00
2019-01-09T10:53:43.208Z,9968.00
2019-01-09T10:54:43.172Z,10492.00
2019-01-09T10:55:43.134Z,11080.00
2019-01-09T10:56:43.120Z,12040.00
2019-01-09T10:57:43.047Z,11572.00
2019-01-09T10:58:43.011Z,12892.00
2019-01-09T10:59:42.961Z,8268.00
2019-01-09T11:00:42.940Z,6288.00
2019-01-09T11:01:42.927Z,7036.00
2019-01-09T11:02:42.870Z,7460.00
2019-01-09T11:03:42.818Z,9256.00
2019-01-09T11:04:42.767Z,10668.00
2019-01-09T11:05:42.724Z,8764.00
2019-01-09T11:06:42.697Z,10684.00
2019-01-09T11:07:42.680Z,12068.00
2019-01-09T11:08:47.109Z,11356.00
2019-01-09T11:09:42.562Z,10252.00
2019-01-09T11:10:42.515Z,6860.00
2019-01-09T11:11:42.474Z,8684.00
2019-01-09T11:12:42.454Z,6388.00
2019-01-09T11:13:42.430Z,5872.00
2019-01-09T11:14:42.384Z,6104.00
2019-01-09T11:15:42.312Z,6744.00
2019-01-09T11:16:42.267Z,4860.00
2019-01-09T11:17:42.237Z,4328.00
2019-01-09T11:18:42.205Z,4436.00
2019-01-09T11:19:42.155Z,5140.00
2019-01-09T11:20:42.145Z,10880.00
2019-01-09T11:21:42.071Z,12172.00
2019-01-09T11:22:42.067Z,12560.00
2019-01-09T11:23:41.987Z,11668.00
2019-01-09T11:24:41.992Z,6132.00
2019-01-09T11:25:41.906Z,6876.00
2019-01-09T11:26:41.911Z,7012.00
2019-01-09T11:27:41.821Z,12900.00
2019-01-09T11:28:41.785Z,8376.00
2019-01-09T11:29:41.735Z,13408.00
2019-01-09T11:30:41.750Z,9604.00
2019-01-09T11:31:41.656Z,7288.00
2019-01-09T11:32:41.622Z,7664.00
2019-01-09T11:33:41.565Z,9512.00
2019-01-09T11:34:41.544Z,9420.00
2019-01-09T11:35:41.498Z,8320.00
2019-01-09T11:36:41.471Z,12916.00
2019-01-09T11:37:41.418Z,6660.00
2019-01-09T11:38:41.364Z,5888.00
2019-01-09T11:39:41.429Z,10452.00
2019-01-09T11:40:41.287Z,8300.00
2019-01-09T11:41:41.264Z,8728.00
2019-01-09T11:42:41.186Z,10140.00
2019-01-09T11:43:41.178Z,7312.00
2019-01-09T11:44:41.128Z,7880.00
2019-01-09T11:45:41.082Z,8056.00
2019-01-09T11:46:41.047Z,7072.00
2019-01-09T11:47:40.996Z,8256.00
2019-01-09T11:48:40.958Z,11316.00
2019-01-09T11:49:40.924Z,8264.00
2019-01-09T11:50:40.890Z,6920.00
2019-01-09T11:51:40.830Z,7116.00
2019-01-09T11:52:40.795Z,7292.00
2019-01-09T11:53:40.736Z,8976.00
2019-01-09T11:54:41.638Z,9668.00
2019-01-09T11:55:40.745Z,7976.00
2019-01-09T11:56:40.645Z,6112.00
2019-01-09T11:57:40.589Z,6812.00
2019-01-09T11:58:40.532Z,7596.00
2019-01-09T11:59:40.495Z,6552.00
2019-01-09T12:00:40.437Z,7860.00
2019-01-09T12:01:40.420Z,8540.00
2019-01-09T12:02:40.392Z,7240.00
2019-01-09T12:03:40.311Z,7340.00
2019-01-09T12:04:40.262Z,7904.00
2019-01-09T12:05:40.249Z,7552.00
2019-01-09T12:06:40.210Z,6984.00
2019-01-09T12:07:40.154Z,8448.00
2019-01-09T12:08:40.111Z,10648.00
2019-01-09T12:09:40.073Z,8276.00
2019-01-09T12:10:40.034Z,5896.00
2019-01-09T12:11:40.003Z,6080.00
2019-01-09T12:12:39.955Z,7796.00
2019-01-09T12:13:39.888Z,8480.00
2019-01-09T12:14:39.844Z,8552.00
2019-01-09T12:15:39.803Z,10704.00
2019-01-09T12:16:39.778Z,7540.00
2019-01-09T12:17:39.752Z,7324.00
2019-01-09T12:18:39.704Z,8348.00
2019-01-09T12:19:39.646Z,7864.00
2019-01-09T12:20:39.598Z,10432.00
2019-01-09T12:21:39.582Z,10252.00
2019-01-09T12:22:39.598Z,7476.00
2019-01-09T12:23:39.489Z,8600.00
2019-01-09T12:24:39.430Z,7468.00
2019-01-09T12:25:39.375Z,6148.00
2019-01-09T12:26:39.437Z,7348.00
2019-01-09T12:27:39.288Z,7904.00
2019-01-09T12:28:39.312Z,8452.00
2019-01-09T12:29:39.232Z,8212.00
2019-01-09T12:30:39.184Z,7316.00
2019-01-09T12:31:39.136Z,7124.00
2019-01-09T12:32:39.105Z,6212.00
2019-01-09T12:33:39.058Z,7264.00
2019-01-09T12:34:39.036Z,11300.00
2019-01-09T12:35:38.955Z,12108.00
2019-01-09T12:36:38.927Z,9544.00
2019-01-09T12:37:38.891Z,8504.00
2019-01-09T12:38:47.592Z,9160.00
2019-01-09T12:39:48.580Z,10480.00
2019-01-09T12:40:38.763Z,10056.00
2019-01-09T12:41:38.712Z,9188.00
2019-01-09T12:42:38.668Z,6080.00
2019-01-09T12:43:38.600Z,4700.00
2019-01-09T12:44:38.627Z,4612.00